Time;durP1;ratioP1;P1;durP2;ratioP2;P2;SDS_P1;SDS_P2;PMS_P1;PMS_P2;Temp;Humidity;BMP_temperature;BMP_pressure;BME280_temperature;BME280_humidity;BME280_pressure;Samples;Min_cycle;Max_cycle;Signal;HPM_P1;HPM_P2
2023/06/06 00:00:17;;;;;;;10.57;3.25;;;19.00;99.90;;;;;;5107532;28;20038;-76
2023/06/06 00:02:45;;;;;;;6.93;2.97;;;19.00;99.90;;;;;;5093905;28;20020;-76
2023/06/06 00:05:15;;;;;;;9.82;3.30;;;19.00;99.90;;;;;;5093732;28;20039;-76
2023/06/06 00:07:45;;;;;;;10.07;3.55;;;19.00;99.90;;;;;;5093856;28;20123;-76
2023/06/06 00:10:14;;;;;;;12.85;3.80;;;18.90;99.90;;;;;;5103602;28;20477;-74
2023/06/06 00:12:41;;;;;;;10.48;3.58;;;18.90;99.90;;;;;;5113771;28;20047;-75
2023/06/06 00:15:08;;;;;;;8.15;3.63;;;18.90;99.90;;;;;;5114375;28;20436;-74
2023/06/06 00:17:37;;;;;;;11.52;3.58;;;18.90;99.90;;;;;;5113879;28;20030;-75
2023/06/06 00:20:07;;;;;;;9.35;3.38;;;18.90;99.90;;;;;;5113915;28;20035;-75
2023/06/06 00:22:35;;;;;;;12.75;3.85;;;18.90;99.90;;;;;;5114446;28;20409;-75
2023/06/06 00:25:03;;;;;;;7.60;3.20;;;18.90;99.90;;;;;;5113851;28;20034;-74
2023/06/06 00:27:29;;;;;;;13.85;3.60;;;18.90;99.90;;;;;;5114161;28;20368;-75
2023/06/06 00:29:55;;;;;;;9.63;3.72;;;18.90;99.90;;;;;;5109657;28;20166;-75
2023/06/06 00:32:22;;;;;;;9.77;3.70;;;18.90;99.90;;;;;;5093227;28;20464;-75
2023/06/06 00:34:48;;;;;;;12.02;3.58;;;18.90;99.90;;;;;;5093380;28;20066;-75
2023/06/06 00:37:14;;;;;;;13.73;3.40;;;18.90;99.90;;;;;;5093660;28;20047;-75
2023/06/06 00:39:40;;;;;;;12.63;3.67;;;19.00;99.90;;;;;;5098833;28;20042;-74
2023/06/06 00:42:06;;;;;;;10.60;3.88;;;19.00;99.90;;;;;;5113730;28;20024;-75
2023/06/06 00:44:32;;;;;;;12.13;4.30;;;19.10;99.90;;;;;;5114080;28;20035;-74
2023/06/06 00:46:58;;;;;;;15.45;3.70;;;19.00;99.90;;;;;;5113510;28;20088;-75
2023/06/06 00:49:26;;;;;;;13.90;4.07;;;18.80;99.90;;;;;;5113629;28;20127;-75
2023/06/06 00:51:52;;;;;;;10.15;3.90;;;18.70;99.90;;;;;;5113395;28;20084;-76
2023/06/06 00:54:19;;;;;;;7.68;3.72;;;18.60;99.90;;;;;;5113630;28;20110;-75
2023/06/06 00:56:47;;;;;;;7.80;3.67;;;18.50;99.90;;;;;;5113258;28;20039;-75
2023/06/06 00:59:15;;;;;;;11.13;3.63;;;18.50;99.90;;;;;;5113042;28;20058;-76
2023/06/06 01:01:42;;;;;;;10.70;4.35;;;18.40;99.90;;;;;;5094124;28;20024;-75
2023/06/06 01:04:10;;;;;;;11.07;4.03;;;18.30;99.90;;;;;;5092876;28;20126;-75
2023/06/06 01:06:37;;;;;;;8.98;4.22;;;18.30;99.90;;;;;;5092659;28;20020;-75
2023/06/06 01:09:07;;;;;;;;;;;18.30;99.90;;;;;;5093605;28;20042;-76
2023/06/06 01:12:14;;;;;;;8.95;4.18;;;18.20;99.90;;;;;;5112780;28;19927;-75
2023/06/06 01:15:06;;;;;;;11.82;4.32;;;18.20;99.90;;;;;;5113277;28;20019;-76
2023/06/06 01:17:33;;;;;;;10.88;4.25;;;18.20;99.90;;;;;;5112622;28;20042;-75
2023/06/06 01:20:00;;;;;;;12.02;4.28;;;18.20;99.90;;;;;;5112633;28;20143;-75
2023/06/06 01:22:28;;;;;;;8.88;4.30;;;18.20;99.90;;;;;;5112482;28;20039;-75
2023/06/06 01:24:56;;;;;;;11.85;3.60;;;18.20;99.90;;;;;;5112586;28;20076;-75
2023/06/06 01:27:22;;;;;;;7.82;4.22;;;18.20;99.90;;;;;;5112491;28;20103;-74
2023/06/06 01:29:49;;;;;;;9.60;4.00;;;18.20;99.90;;;;;;5109412;28;20326;-74
2023/06/06 01:32:36;;;;;;;8.30;4.10;;;18.20;99.90;;;;;;5091937;28;20123;-75
2023/06/06 01:35:08;;;;;;;13.60;4.82;;;18.20;99.90;;;;;;5092027;28;20130;-75
2023/06/06 01:37:37;;;;;;;12.43;4.40;;;18.20;99.90;;;;;;5092180;28;20020;-74
2023/06/06 01:40:06;;;;;;;15.07;4.40;;;18.30;99.90;;;;;;5100692;28;20035;-76
2023/06/06 01:42:38;;;;;;;12.57;4.38;;;18.30;99.90;;;;;;5112383;28;20051;-74
2023/06/06 01:45:07;;;;;;;15.73;4.93;;;18.30;99.90;;;;;;5112706;28;20024;-74
2023/06/06 01:47:34;;;;;;;8.95;4.60;;;18.20;99.90;;;;;;5112404;28;20126;-73
2023/06/06 01:50:03;;;;;;;12.27;4.47;;;18.10;99.90;;;;;;5112394;28;20034;-74
2023/06/06 01:52:34;;;;;;;10.57;4.63;;;18.00;99.90;;;;;;5112789;28;20043;-74
2023/06/06 01:55:01;;;;;;;12.68;4.50;;;17.90;99.90;;;;;;5112617;28;20020;-75
2023/06/06 01:57:27;;;;;;;14.65;4.53;;;17.80;99.90;;;;;;5112672;28;20027;-74
2023/06/06 01:59:54;;;;;;;8.93;4.00;;;17.80;99.90;;;;;;5108389;28;20028;-74
2023/06/06 02:02:20;;;;;;;13.63;4.95;;;17.80;99.90;;;;;;5091467;28;20100;-74
2023/06/06 02:04:48;;;;;;;11.60;4.47;;;17.70;99.90;;;;;;5091483;28;20103;-75
2023/06/06 02:07:17;;;;;;;12.05;4.82;;;17.60;99.90;;;;;;5091503;28;20357;-74
2023/06/06 02:09:44;;;;;;;10.18;4.88;;;17.50;99.90;;;;;;5097546;28;20036;-74
2023/06/06 02:12:10;;;;;;;;;;;17.40;99.90;;;;;;5112754;28;20024;-75
2023/06/06 02:14:36;;;;;;;8.98;5.00;;;17.40;99.90;;;;;;5111696;28;19949;-74
2023/06/06 02:17:03;;;;;;;9.60;4.97;;;17.30;99.90;;;;;;5111596;28;20418;-74
2023/06/06 02:19:30;;;;;;;;;;;17.30;99.90;;;;;;5094052;28;20038;-75
2023/06/06 02:21:56;;;;;;;10.80;4.65;;;17.20;99.90;;;;;;5111665;28;19904;-75
2023/06/06 02:24:24;;;;;;;8.27;4.93;;;17.20;99.90;;;;;;5111595;28;20027;-74
2023/06/06 02:26:54;;;;;;;8.50;4.93;;;17.20;99.90;;;;;;5111489;28;20020;-74
2023/06/06 02:29:24;;;;;;;10.40;4.40;;;17.10;99.90;;;;;;5111365;28;20023;-74
2023/06/06 02:31:50;;;;;;;10.40;5.13;;;17.10;99.90;;;;;;5090858;28;20101;-75
2023/06/06 02:34:17;;;;;;;13.70;5.40;;;17.20;99.90;;;;;;5090793;28;20071;-75
2023/06/06 02:36:45;;;;;;;10.90;4.70;;;17.20;99.90;;;;;;5091053;28;20416;-74
2023/06/06 02:39:11;;;;;;;7.75;4.40;;;17.30;99.90;;;;;;5092308;28;20124;-73
2023/06/06 02:41:37;;;;;;;10.90;5.32;;;17.30;99.90;;;;;;5111028;28;20546;-74
2023/06/06 02:44:03;;;;;;;10.23;5.30;;;17.20;99.90;;;;;;5111157;28;20408;-73
2023/06/06 02:46:30;;;;;;;12.02;4.88;;;17.20;99.90;;;;;;5110900;28;20499;-75
2023/06/06 02:48:56;;;;;;;13.73;4.63;;;17.20;99.90;;;;;;5092236;28;20023;-73
2023/06/06 02:51:23;;;;;;;14.25;5.07;;;17.20;99.90;;;;;;5110984;28;20471;-73
2023/06/06 02:53:49;;;;;;;10.55;5.05;;;17.10;99.90;;;;;;5111127;28;20109;-73
2023/06/06 02:56:16;;;;;;;10.73;5.35;;;17.10;99.90;;;;;;5092264;28;20034;-74
2023/06/06 02:58:45;;;;;;;7.88;4.20;;;17.10;99.90;;;;;;5093277;28;20034;-73
2023/06/06 03:01:12;;;;;;;9.45;5.10;;;17.10;99.90;;;;;;5096774;28;20452;-73
2023/06/06 03:03:39;;;;;;;8.02;4.95;;;17.10;99.90;;;;;;5091486;28;20016;-74
2023/06/06 03:06:06;;;;;;;;;;;17.00;99.90;;;;;;5091941;28;20054;-75
2023/06/06 03:08:40;;;;;;;10.60;5.25;;;17.10;99.90;;;;;;5092089;28;20360;-73
2023/06/06 03:11:06;;;;;;;10.10;4.63;;;16.90;99.90;;;;;;5109458;28;20039;-75
2023/06/06 03:13:33;;;;;;;9.15;5.07;;;16.90;99.90;;;;;;5112539;28;20023;-74
2023/06/06 03:16:00;;;;;;;12.55;5.18;;;16.90;99.90;;;;;;5112319;28;20027;-75
2023/06/06 03:18:26;;;;;;;9.50;5.28;;;16.80;99.90;;;;;;5116902;28;20028;-75
2023/06/06 03:20:53;;;;;;;9.63;5.53;;;16.80;99.90;;;;;;5116274;28;20088;-73
2023/06/06 03:23:20;;;;;;;12.55;5.22;;;16.70;99.90;;;;;;5098125;28;20032;-75
2023/06/06 03:25:51;;;;;;;10.02;5.63;;;16.60;99.90;;;;;;5117417;28;20424;-74
2023/06/06 03:28:18;;;;;;;13.60;5.25;;;16.60;99.90;;;;;;5117213;28;20024;-75
2023/06/06 03:30:47;;;;;;;8.18;5.10;;;16.70;99.90;;;;;;5105750;28;20012;-75
2023/06/06 03:33:15;;;;;;;8.15;4.57;;;16.70;99.90;;;;;;5096814;28;20035;-75
2023/06/06 03:35:43;;;;;;;9.40;5.00;;;16.60;99.90;;;;;;5096876;28;20095;-74
2023/06/06 03:38:09;;;;;;;10.35;5.80;;;16.60;99.90;;;;;;5096404;28;20146;-76
2023/06/06 03:40:35;;;;;;;13.75;5.68;;;16.60;99.90;;;;;;5108452;28;20031;-75
2023/06/06 03:43:01;;;;;;;8.20;4.82;;;16.60;99.90;;;;;;5115676;28;20016;-75
2023/06/06 03:45:27;;;;;;;11.40;5.93;;;16.60;99.90;;;;;;5115632;28;20031;-76
2023/06/06 03:47:54;;;;;;;14.13;5.43;;;16.60;99.90;;;;;;5115737;28;20033;-76
2023/06/06 03:50:21;;;;;;;;;;;16.60;99.90;;;;;;5116505;28;20266;-77
2023/06/06 03:52:47;;;;;;;11.70;5.57;;;16.70;99.90;;;;;;5116007;28;19904;-75
2023/06/06 03:55:13;;;;;;;10.25;5.47;;;16.70;99.90;;;;;;5097629;28;20118;-75
2023/06/06 03:57:40;;;;;;;9.68;5.03;;;16.70;99.90;;;;;;5097636;28;20069;-75
2023/06/06 04:00:10;;;;;;;;;;;16.70;99.90;;;;;;5110590;28;20101;-75
2023/06/06 04:02:40;;;;;;;12.80;5.22;;;16.70;99.90;;;;;;5110592;28;19911;-76
2023/06/06 04:05:07;;;;;;;9.88;5.18;;;16.80;99.90;;;;;;5095511;28;20023;-75
2023/06/06 04:07:34;;;;;;;10.63;5.18;;;16.80;99.90;;;;;;5095578;28;20028;-75
2023/06/06 04:10:01;;;;;;;8.40;4.82;;;16.80;99.90;;;;;;5103349;28;20063;-74
2023/06/06 04:12:27;;;;;;;;;;;16.70;99.90;;;;;;5114926;28;20027;-76
2023/06/06 04:14:53;;;;;;;9.38;5.70;;;16.70;99.90;;;;;;5114523;28;19997;-74
2023/06/06 04:17:19;;;;;;;9.13;5.00;;;16.70;99.90;;;;;;5114852;28;20117;-74
2023/06/06 04:19:47;;;;;;;10.32;5.00;;;16.70;99.90;;;;;;5114951;28;20365;-74
2023/06/06 04:22:15;;;;;;;9.95;5.18;;;16.70;99.90;;;;;;5115249;28;20020;-74
2023/06/06 04:24:41;;;;;;;11.02;5.63;;;16.70;99.90;;;;;;5114923;28;20031;-74
2023/06/06 04:27:07;;;;;;;10.60;5.03;;;16.80;99.90;;;;;;5114728;28;20055;-74
2023/06/06 04:29:34;;;;;;;9.18;5.47;;;16.80;99.90;;;;;;5114437;28;20051;-75
2023/06/06 04:32:03;;;;;;;9.10;4.90;;;16.90;99.90;;;;;;5094244;28;20035;-75
2023/06/06 04:34:30;;;;;;;11.93;5.40;;;16.80;99.90;;;;;;5094697;28;20772;-76
2023/06/06 04:37:05;;;;;;;11.45;4.63;;;16.90;99.90;;;;;;5094415;28;20484;-74
2023/06/06 04:39:32;;;;;;;9.82;5.13;;;16.90;99.90;;;;;;5098841;28;20034;-74
2023/06/06 04:42:00;;;;;;;7.50;4.63;;;16.90;99.90;;;;;;5114912;28;20026;-75
2023/06/06 04:44:27;;;;;;;8.68;4.90;;;17.00;99.90;;;;;;5115117;28;20024;-76
2023/06/06 04:47:00;;;;;;;8.50;4.60;;;17.00;99.90;;;;;;5114530;28;20031;-74
2023/06/06 04:49:35;;;;;;;7.40;4.65;;;17.10;99.90;;;;;;5115076;28;20024;-75
2023/06/06 04:52:08;;;;;;;6.47;3.90;;;17.10;99.90;;;;;;5097662;28;20111;-74
2023/06/06 04:54:39;;;;;;;7.07;4.00;;;17.10;99.90;;;;;;5114900;28;20034;-74
2023/06/06 04:57:15;;;;;;;9.82;4.88;;;17.10;99.90;;;;;;5115064;28;20102;-74
2023/06/06 04:59:43;;;;;;;10.07;4.70;;;17.10;99.90;;;;;;5112833;28;20046;-75
2023/06/06 05:02:09;;;;;;;8.05;4.70;;;17.20;99.90;;;;;;5093609;28;20110;-74
2023/06/06 05:04:35;;;;;;;7.53;4.80;;;17.20;99.90;;;;;;5093916;28;20027;-75
2023/06/06 05:07:02;;;;;;;9.23;4.30;;;17.20;99.90;;;;;;5093912;28;20026;-75
2023/06/06 05:09:28;;;;;;;8.18;4.72;;;17.20;99.90;;;;;;5097581;28;20098;-75
2023/06/06 05:11:54;;;;;;;12.57;4.57;;;17.20;99.90;;;;;;4914249;28;5673817;-74
2023/06/06 05:14:24;;;;;;;9.38;4.68;;;17.10;99.90;;;;;;5096157;28;20476;-74
2023/06/06 05:16:54;;;;;;;7.15;4.50;;;17.10;99.90;;;;;;5114493;28;20387;-76
2023/06/06 05:19:20;;;;;;;11.50;4.20;;;17.20;99.90;;;;;;5114765;28;20063;-75
2023/06/06 05:21:47;;;;;;;8.88;3.97;;;17.20;99.90;;;;;;5115320;28;20022;-75
2023/06/06 05:24:14;;;;;;;6.63;4.25;;;17.30;99.90;;;;;;5115341;28;20027;-75
2023/06/06 05:26:41;;;;;;;7.32;4.40;;;17.40;99.90;;;;;;5115197;28;20047;-75
2023/06/06 05:29:07;;;;;;;;;;;17.40;99.90;;;;;;5114814;28;20024;-76
2023/06/06 05:31:33;;;;;;;7.03;4.63;;;17.50;99.90;;;;;;5111943;27;19904;-75
2023/06/06 05:34:00;;;;;;;10.18;4.88;;;17.50;99.90;;;;;;5093803;28;20039;-75
2023/06/06 05:36:27;;;;;;;7.53;4.57;;;17.50;99.90;;;;;;5093605;28;20035;-74
2023/06/06 05:38:53;;;;;;;6.88;3.92;;;17.50;99.90;;;;;;5092712;28;20488;-75
2023/06/06 05:41:20;;;;;;;6.85;4.28;;;17.60;99.90;;;;;;5113144;28;20027;-74
2023/06/06 05:43:47;;;;;;;7.82;3.90;;;17.60;99.90;;;;;;5113803;28;20032;-75
2023/06/06 05:46:14;;;;;;;11.98;5.05;;;17.70;99.90;;;;;;5113531;28;20023;-75
2023/06/06 05:48:41;;;;;;;7.20;4.00;;;17.70;99.90;;;;;;5114107;28;20015;-76
2023/06/06 05:51:07;;;;;;;6.07;4.00;;;17.70;99.90;;;;;;5113497;28;20366;-75
2023/06/06 05:53:33;;;;;;;7.70;4.28;;;17.70;99.90;;;;;;5094601;28;20164;-75
2023/06/06 05:56:00;;;;;;;5.72;3.67;;;17.70;99.90;;;;;;5095601;28;20078;-76
2023/06/06 05:58:26;;;;;;;11.88;3.88;;;17.80;99.90;;;;;;5094199;28;20460;-75
2023/06/06 06:00:52;;;;;;;8.38;3.90;;;17.80;99.90;;;;;;5082394;28;20028;-75
2023/06/06 06:03:20;;;;;;;7.88;3.90;;;17.80;99.90;;;;;;5074271;28;20020;-73
2023/06/06 06:05:47;;;;;;;7.93;3.55;;;17.90;99.90;;;;;;5092534;28;20107;-75
2023/06/06 06:08:14;;;;;;;8.15;4.20;;;17.90;99.90;;;;;;5108047;28;20024;-77
2023/06/06 06:10:40;;;;;;;;;;;17.90;99.90;;;;;;5107210;28;20074;-74
2023/06/06 06:13:06;;;;;;;6.65;3.65;;;17.90;99.90;;;;;;5113021;28;19908;-76
2023/06/06 06:15:33;;;;;;;8.10;4.10;;;17.90;99.90;;;;;;5112917;28;20027;-75
2023/06/06 06:18:00;;;;;;;7.70;4.00;;;17.90;99.90;;;;;;5112721;28;20024;-75
2023/06/06 06:20:27;;;;;;;6.18;3.42;;;17.80;99.90;;;;;;5112650;28;20035;-75
2023/06/06 06:22:53;;;;;;;6.45;3.58;;;17.90;99.90;;;;;;5094389;28;20130;-76
2023/06/06 06:25:20;;;;;;;7.38;3.50;;;17.90;99.90;;;;;;5112942;28;20031;-77
2023/06/06 06:27:46;;;;;;;;;;;17.90;99.90;;;;;;5113369;28;20016;-76
2023/06/06 06:30:14;;;;;;;7.10;4.05;;;18.00;99.90;;;;;;5087658;28;19924;-76
2023/06/06 06:32:41;;;;;;;7.35;4.38;;;17.90;99.90;;;;;;5073635;28;20425;-75
2023/06/06 06:35:08;;;;;;;11.15;3.95;;;17.90;99.90;;;;;;5092250;28;20020;-77
2023/06/06 06:37:37;;;;;;;9.18;4.45;;;17.90;99.90;;;;;;5074750;28;20028;-77
2023/06/06 06:40:12;;;;;;;10.02;4.50;;;17.80;99.90;;;;;;5100882;28;20036;-77
2023/06/06 06:42:40;;;;;;;9.93;4.00;;;17.90;99.90;;;;;;5094090;28;20020;-76
2023/06/06 06:45:13;;;;;;;7.15;3.92;;;17.90;99.90;;;;;;5112718;28;20024;-76
2023/06/06 06:47:40;;;;;;;11.25;3.90;;;17.90;99.90;;;;;;5112414;28;20018;-76
2023/06/06 06:50:06;;;;;;;;;;;18.00;99.90;;;;;;5112920;28;20094;-76
2023/06/06 06:52:33;;;;;;;6.07;3.10;;;18.00;99.90;;;;;;5112490;28;20429;-76
2023/06/06 06:55:04;;;;;;;6.07;3.63;;;18.10;99.90;;;;;;5112503;28;20170;-75
2023/06/06 06:57:31;;;;;;;5.18;3.53;;;18.10;99.90;;;;;;5112602;28;20031;-76
2023/06/06 07:00:11;;;;;;;6.10;3.80;;;18.10;99.90;;;;;;5108184;28;20032;-76
2023/06/06 07:02:39;;;;;;;8.77;4.05;;;18.00;99.90;;;;;;5092021;28;20087;-77
2023/06/06 07:05:07;;;;;;;6.50;3.58;;;18.00;99.90;;;;;;5092446;28;20522;-77
2023/06/06 07:07:33;;;;;;;7.35;3.97;;;18.00;99.90;;;;;;5091407;28;20055;-77
2023/06/06 07:09:59;;;;;;;7.82;4.07;;;18.10;99.90;;;;;;5081782;28;20108;-76
2023/06/06 07:12:25;;;;;;;6.95;3.85;;;18.10;99.90;;;;;;5112648;28;20102;-76
2023/06/06 07:14:51;;;;;;;6.25;3.33;;;18.20;99.90;;;;;;5112164;28;20027;-77
2023/06/06 07:17:17;;;;;;;7.07;4.10;;;18.10;99.90;;;;;;5112346;28;20353;-75
2023/06/06 07:19:44;;;;;;;12.13;4.35;;;18.10;99.90;;;;;;5093836;28;20036;-76
2023/06/06 07:22:14;;;;;;;6.65;3.50;;;18.10;99.90;;;;;;5112457;28;20035;-75
2023/06/06 07:24:41;;;;;;;9.32;4.20;;;18.10;99.90;;;;;;5112449;28;20107;-77
2023/06/06 07:27:08;;;;;;;6.43;4.28;;;18.10;99.90;;;;;;5112102;28;20035;-77
2023/06/06 07:29:34;;;;;;;8.57;4.15;;;18.00;99.90;;;;;;5111965;28;20019;-78
2023/06/06 07:32:00;;;;;;;9.30;4.43;;;18.10;99.90;;;;;;5092136;28;20036;-75
2023/06/06 07:34:26;;;;;;;7.75;4.13;;;18.10;99.90;;;;;;5107330;28;20031;-77
2023/06/06 07:36:53;;;;;;;13.35;4.60;;;18.10;99.90;;;;;;5092478;28;20057;-76
2023/06/06 07:39:19;;;;;;;9.70;4.75;;;18.00;99.90;;;;;;5094521;28;20032;-78
2023/06/06 07:41:45;;;;;;;8.73;4.05;;;18.00;99.90;;;;;;5111986;28;20023;-75
2023/06/06 07:44:11;;;;;;;7.50;4.40;;;18.00;99.90;;;;;;5093579;28;20080;-77
2023/06/06 07:46:37;;;;;;;7.22;4.40;;;18.00;99.90;;;;;;5094346;28;20020;-76
2023/06/06 07:49:03;;;;;;;10.40;4.10;;;18.10;99.90;;;;;;5112172;28;20107;-78
2023/06/06 07:51:32;;;;;;;8.75;4.30;;;18.10;99.90;;;;;;5111955;28;20107;-76
2023/06/06 07:53:58;;;;;;;8.82;4.32;;;18.10;99.90;;;;;;5111447;28;20032;-75
2023/06/06 07:56:24;;;;;;;8.32;4.90;;;18.00;99.90;;;;;;5111405;28;20104;-78
2023/06/06 07:58:54;;;;;;;5.55;3.78;;;18.00;99.90;;;;;;5111598;28;20019;-77
2023/06/06 08:01:21;;;;;;;6.88;3.75;;;18.00;99.90;;;;;;5076719;28;20024;-77
2023/06/06 08:03:54;;;;;;;7.47;4.35;;;18.00;99.90;;;;;;5093570;28;20337;-77
2023/06/06 08:06:23;;;;;;;9.13;4.15;;;18.00;99.90;;;;;;5094527;28;20460;-76
2023/06/06 08:08:49;;;;;;;5.53;3.83;;;18.00;99.90;;;;;;5094646;28;20028;-77
2023/06/06 08:11:17;;;;;;;6.72;3.90;;;18.00;99.90;;;;;;5128960;27;20089;-77
2023/06/06 08:13:43;;;;;;;7.20;3.97;;;18.00;99.90;;;;;;5096339;28;20019;-76
2023/06/06 08:16:09;;;;;;;11.32;4.15;;;18.00;99.90;;;;;;5114813;28;20039;-76
2023/06/06 08:18:38;;;;;;;7.45;3.95;;;18.00;99.90;;;;;;5115283;28;20105;-76
2023/06/06 08:21:04;;;;;;;8.45;3.97;;;18.10;99.90;;;;;;5115822;28;20020;-77
2023/06/06 08:23:30;;;;;;;12.60;3.72;;;18.10;99.90;;;;;;5115562;28;20380;-76
2023/06/06 08:25:57;;;;;;;12.10;4.03;;;18.20;99.90;;;;;;5115544;28;20024;-78
2023/06/06 08:28:26;;;;;;;7.85;3.72;;;18.10;99.90;;;;;;5096785;28;20023;-77
2023/06/06 08:30:53;;;;;;;8.73;4.03;;;18.20;99.90;;;;;;5103073;28;20051;-76
2023/06/06 08:33:20;;;;;;;9.00;3.40;;;18.20;99.90;;;;;;5094356;28;20074;-76
2023/06/06 08:35:46;;;;;;;;;;;18.20;99.90;;;;;;5094727;28;20030;-76
2023/06/06 08:38:12;;;;;;;8.60;3.38;;;18.10;99.90;;;;;;5094634;28;19940;-75
2023/06/06 08:40:39;;;;;;;7.45;3.80;;;18.10;99.90;;;;;;5108202;28;20084;-75
2023/06/06 08:43:06;;;;;;;;;;;18.10;99.90;;;;;;5115544;28;20016;-76
2023/06/06 08:45:33;;;;;;;8.38;3.75;;;18.00;99.90;;;;;;5114581;28;19923;-76
2023/06/06 08:48:02;;;;;;;6.47;3.60;;;18.00;99.90;;;;;;5114410;28;20035;-76
2023/06/06 08:50:30;;;;;;;10.43;3.90;;;18.00;99.90;;;;;;5114546;28;20452;-76
2023/06/06 08:52:56;;;;;;;6.25;3.40;;;17.90;99.90;;;;;;5114617;28;20028;-77
2023/06/06 08:55:23;;;;;;;7.72;3.83;;;17.80;99.90;;;;;;5114330;28;20024;-75
2023/06/06 08:57:50;;;;;;;12.90;4.18;;;17.70;99.90;;;;;;5114646;28;20023;-77
2023/06/06 09:00:21;;;;;;;5.78;3.35;;;17.60;99.90;;;;;;5107665;28;20422;-76
2023/06/06 09:02:54;;;;;;;6.68;3.22;;;17.60;99.90;;;;;;5093694;28;20168;-76
2023/06/06 09:05:21;;;;;;;6.32;3.33;;;17.60;99.90;;;;;;5075451;28;20109;-76
2023/06/06 09:07:49;;;;;;;9.23;3.90;;;17.60;99.90;;;;;;5094066;28;20016;-77
2023/06/06 09:10:16;;;;;;;5.85;3.20;;;17.50;99.90;;;;;;5104382;28;20514;-77
2023/06/06 09:12:43;;;;;;;7.45;3.67;;;17.60;99.90;;;;;;5114268;28;20019;-77
2023/06/06 09:15:10;;;;;;;7.35;3.40;;;17.60;99.90;;;;;;5112571;28;20177;-77
2023/06/06 09:17:37;;;;;;;7.18;3.35;;;17.50;99.90;;;;;;5113608;28;20069;-76
2023/06/06 09:20:13;;;;;;;6.97;3.65;;;17.50;99.90;;;;;;5113526;28;20392;-76
2023/06/06 09:22:41;;;;;;;4.68;2.90;;;17.60;99.90;;;;;;5113749;28;20062;-76
2023/06/06 09:25:20;;;;;;;6.97;3.70;;;17.50;99.90;;;;;;5113491;28;20027;-75
2023/06/06 09:27:47;;;;;;;6.65;3.53;;;17.50;99.90;;;;;;5114020;28;20025;-76
2023/06/06 09:30:21;;;;;;;6.63;4.00;;;17.60;99.90;;;;;;5106974;28;20479;-76
2023/06/06 09:33:00;;;;;;;7.25;3.05;;;17.60;99.90;;;;;;5092747;28;20111;-75
2023/06/06 09:35:32;;;;;;;6.65;3.60;;;17.60;99.90;;;;;;5074479;28;20062;-75
2023/06/06 09:38:16;;;;;;;5.82;3.67;;;17.60;99.90;;;;;;5093082;28;20090;-76
2023/06/06 09:40:47;;;;;;;6.32;4.00;;;17.70;99.90;;;;;;5107056;28;20074;-74
2023/06/06 09:43:15;;;;;;;8.38;3.70;;;17.70;99.90;;;;;;5113032;28;20020;-75
2023/06/06 09:46:00;;;;;;;7.53;4.05;;;17.70;99.90;;;;;;5113046;28;20055;-77
2023/06/06 09:48:28;;;;;;;8.63;4.13;;;17.70;99.90;;;;;;5113170;28;20012;-78
2023/06/06 09:50:55;;;;;;;6.40;4.03;;;17.70;99.90;;;;;;5112964;28;20063;-76
2023/06/06 09:53:29;;;;;;;8.13;4.63;;;17.70;99.90;;;;;;5112586;28;20024;-76
2023/06/06 09:56:01;;;;;;;8.90;4.05;;;17.70;99.90;;;;;;5112699;28;20086;-76
2023/06/06 09:58:30;;;;;;;7.95;4.40;;;17.80;99.90;;;;;;5112895;28;20091;-77
2023/06/06 10:00:59;;;;;;;9.18;4.20;;;17.80;99.90;;;;;;5082416;28;20036;-77
2023/06/06 10:03:26;;;;;;;10.23;4.88;;;17.80;99.90;;;;;;5092049;28;20028;-76
2023/06/06 10:05:53;;;;;;;7.88;4.93;;;17.90;99.90;;;;;;5092402;28;20136;-76
2023/06/06 10:08:21;;;;;;;8.93;4.45;;;18.20;99.90;;;;;;5092584;28;20103;-77
2023/06/06 10:10:49;;;;;;;9.45;4.25;;;18.30;99.90;;;;;;5106986;28;20131;-76
2023/06/06 10:13:22;;;;;;;9.55;4.63;;;18.30;99.90;;;;;;5094242;28;20066;-77
2023/06/06 10:15:50;;;;;;;11.07;5.18;;;18.20;99.90;;;;;;5113097;28;20521;-78
2023/06/06 10:18:16;;;;;;;6.22;4.07;;;18.20;99.90;;;;;;5112367;28;20061;-76
2023/06/06 10:20:45;;;;;;;14.60;5.20;;;18.20;99.90;;;;;;5112630;28;20424;-76
2023/06/06 10:23:11;;;;;;;9.35;4.93;;;18.20;99.90;;;;;;5112680;28;20027;-76
2023/06/06 10:25:37;;;;;;;8.48;4.80;;;18.10;99.90;;;;;;5094254;28;20036;-77
2023/06/06 10:28:28;;;;;;;8.75;4.40;;;18.10;99.90;;;;;;5112681;28;20020;-76
2023/06/06 10:31:19;;;;;;;8.55;4.47;;;18.20;99.90;;;;;;5100698;28;20507;-76
2023/06/06 10:33:47;;;;;;;11.20;5.00;;;18.20;99.90;;;;;;5066308;28;20020;-75
2023/06/06 10:36:17;;;;;;;8.40;4.57;;;18.30;99.90;;;;;;5092247;28;20028;-77
2023/06/06 10:39:22;;;;;;;8.93;4.82;;;18.30;99.90;;;;;;5091973;28;20520;-76
2023/06/06 10:41:56;;;;;;;8.23;5.00;;;18.30;99.90;;;;;;5071493;28;20044;-75
2023/06/06 10:44:26;;;;;;;8.80;4.72;;;18.40;99.90;;;;;;5071562;28;20488;-76
2023/06/06 10:47:23;;;;;;;12.23;4.93;;;18.40;99.90;;;;;;5071531;28;20025;-76
2023/06/06 10:50:08;;;;;;;11.00;5.15;;;18.50;99.90;;;;;;5053104;28;20469;-77
2023/06/06 10:52:45;;;;;;;9.55;5.55;;;18.50;99.90;;;;;;5071524;28;20032;-75
2023/06/06 10:55:38;;;;;;;10.45;5.80;;;18.40;99.90;;;;;;5071445;28;20078;-76
2023/06/06 10:58:16;;;;;;;9.07;5.63;;;18.40;99.90;;;;;;5071355;28;20032;-76
2023/06/06 11:00:48;;;;;;;9.43;5.13;;;18.50;99.90;;;;;;5082024;28;20104;-77
2023/06/06 11:03:35;;;;;;;9.50;5.05;;;18.50;99.90;;;;;;5091197;28;20020;-77
2023/06/06 11:06:01;;;;;;;8.52;5.20;;;18.40;99.90;;;;;;5073420;28;20135;-76
2023/06/06 11:08:45;;;;;;;8.45;4.78;;;18.50;99.90;;;;;;5092689;28;20452;-76
2023/06/06 11:11:27;;;;;;;9.05;5.05;;;18.60;99.90;;;;;;5109444;28;20066;-75
2023/06/06 11:14:07;;;;;;;10.07;5.28;;;18.40;99.90;;;;;;5111189;28;20062;-75
2023/06/06 11:16:40;;;;;;;13.77;5.10;;;18.40;99.90;;;;;;5111795;28;20061;-77
2023/06/06 11:19:11;;;;;;;14.20;5.15;;;18.40;99.90;;;;;;5112432;28;20027;-76
2023/06/06 11:21:41;;;;;;;10.15;4.82;;;18.40;99.90;;;;;;5112819;28;20020;-76
2023/06/06 11:24:09;;;;;;;7.57;5.28;;;18.50;99.90;;;;;;5093929;28;20387;-76
2023/06/06 11:26:40;;;;;;;11.73;5.00;;;18.60;99.90;;;;;;5112862;28;20028;-75
2023/06/06 11:29:08;;;;;;;8.57;5.55;;;18.70;99.90;;;;;;5094047;28;20325;-75
2023/06/06 11:31:37;;;;;;;9.23;5.05;;;18.80;99.90;;;;;;5094537;28;20047;-76
2023/06/06 11:34:08;;;;;;;12.23;6.03;;;19.00;99.90;;;;;;5091922;28;20460;-77
2023/06/06 11:36:39;;;;;;;11.10;5.65;;;19.00;99.90;;;;;;5092038;28;20081;-76
2023/06/06 11:39:07;;;;;;;10.18;5.20;;;19.10;99.90;;;;;;5096414;28;20043;-76
2023/06/06 11:41:45;;;;;;;8.25;5.00;;;19.10;99.90;;;;;;5116365;28;20039;-76
2023/06/06 11:44:14;;;;;;;9.95;5.30;;;19.00;99.90;;;;;;5098081;28;20027;-77
2023/06/06 11:46:53;;;;;;;10.02;4.95;;;18.90;99.90;;;;;;5116293;28;20122;-77
2023/06/06 11:49:21;;;;;;;9.43;5.57;;;18.90;99.90;;;;;;5116590;28;20494;-77
2023/06/06 11:52:01;;;;;;;9.25;5.70;;;18.80;99.90;;;;;;5116363;28;20024;-76
2023/06/06 11:54:29;;;;;;;12.60;5.93;;;18.90;99.90;;;;;;5097663;28;20483;-76
2023/06/06 11:57:02;;;;;;;13.05;6.10;;;18.90;99.90;;;;;;5116011;28;20024;-77
2023/06/06 11:59:28;;;;;;;8.38;5.35;;;19.10;99.90;;;;;;5116621;28;20472;-76
2023/06/06 12:01:58;;;;;;;8.52;4.97;;;19.30;99.90;;;;;;5095295;28;20016;-76
2023/06/06 12:04:26;;;;;;;9.13;5.80;;;19.30;99.90;;;;;;5095114;28;20024;-76
2023/06/06 12:06:54;;;;;;;8.73;5.22;;;19.40;99.90;;;;;;5095515;28;20016;-77
2023/06/06 12:09:23;;;;;;;7.45;4.90;;;19.50;99.90;;;;;;5098383;28;20134;-76
2023/06/06 12:12:00;;;;;;;8.45;5.22;;;19.50;99.90;;;;;;5115926;28;20047;-76
2023/06/06 12:14:30;;;;;;;8.50;5.88;;;19.50;99.90;;;;;;5116226;28;20135;-75
2023/06/06 12:17:06;;;;;;;10.98;5.88;;;19.50;99.90;;;;;;5115975;28;20099;-76
2023/06/06 12:19:33;;;;;;;12.33;5.57;;;19.50;99.90;;;;;;5116042;28;20031;-77
2023/06/06 12:21:59;;;;;;;;;;;19.60;99.90;;;;;;5116394;28;20617;-77
2023/06/06 12:24:27;;;;;;;11.18;5.88;;;19.70;99.90;;;;;;5116331;28;19935;-77
2023/06/06 12:27:02;;;;;;;10.93;5.40;;;19.70;99.90;;;;;;5116577;28;20024;-76
2023/06/06 12:29:33;;;;;;;9.93;5.40;;;19.80;99.90;;;;;;5116237;28;20093;-76
2023/06/06 12:32:18;;;;;;;9.52;5.05;;;19.90;99.90;;;;;;5095528;28;20024;-75
2023/06/06 12:34:45;;;;;;;11.85;6.10;;;20.00;99.90;;;;;;5095485;28;20081;-76
2023/06/06 12:37:11;;;;;;;8.23;5.22;;;19.90;99.90;;;;;;5095986;28;20024;-76
2023/06/06 12:39:42;;;;;;;11.90;5.95;;;20.00;99.90;;;;;;5100372;28;20460;-76
2023/06/06 12:42:20;;;;;;;12.85;5.20;;;19.90;99.90;;;;;;5116151;28;20026;-76
2023/06/06 12:44:46;;;;;;;11.85;5.70;;;20.10;99.90;;;;;;5116051;28;20383;-77
2023/06/06 12:47:13;;;;;;;;;;;20.20;99.90;;;;;;5115625;28;20026;-77
2023/06/06 12:49:40;;;;;;;10.05;5.43;;;20.20;99.90;;;;;;5115003;28;19938;-76
2023/06/06 12:52:06;;;;;;;;;;;20.30;99.90;;;;;;5115335;28;20076;-76
2023/06/06 12:54:40;;;;;;;;;;;20.40;99.90;;;;;;5115221;28;20254;-76
2023/06/06 12:57:11;;;;;;;9.45;5.30;;;20.40;99.90;;;;;;5115401;28;20002;-75